createdAt,value
2024-05-09T00:00:45.274Z,24.50
2024-05-09T00:03:34.064Z,23.20
2024-05-09T00:06:19.842Z,23.42
2024-05-09T00:09:05.678Z,22.45
2024-05-09T00:11:51.591Z,23.27
2024-05-09T00:14:37.712Z,23.10
2024-05-09T00:17:23.805Z,22.42
2024-05-09T00:20:17.919Z,23.00
2024-05-09T00:23:13.817Z,22.88
2024-05-09T00:26:00.104Z,21.55
2024-05-09T00:28:49.415Z,22.05
2024-05-09T00:31:35.209Z,21.75
2024-05-09T00:34:21.131Z,22.05
2024-05-09T00:37:09.930Z,22.05
2024-05-09T00:39:55.623Z,20.92
2024-05-09T00:42:41.611Z,20.55
2024-05-09T00:45:27.297Z,21.10
2024-05-09T00:48:19.636Z,20.55
2024-05-09T00:51:07.874Z,20.48
2024-05-09T00:53:56.811Z,21.00
2024-05-09T00:56:43.382Z,21.35
2024-05-09T00:59:32.150Z,21.20
2024-05-09T01:02:18.272Z,20.23
2024-05-09T01:05:04.493Z,21.70
2024-05-09T01:07:50.538Z,20.70
2024-05-09T01:10:42.582Z,20.85
2024-05-09T01:13:31.033Z,22.10
2024-05-09T01:16:16.964Z,20.75
2024-05-09T01:19:04.721Z,20.48
2024-05-09T01:21:50.954Z,21.05
2024-05-09T01:24:39.880Z,21.50
2024-05-09T01:27:25.753Z,21.42
2024-05-09T01:30:17.271Z,22.13
2024-05-09T01:33:09.656Z,22.75
2024-05-09T01:35:57.760Z,22.00
2024-05-09T01:38:43.605Z,22.15
2024-05-09T01:41:32.397Z,21.90
2024-05-09T01:44:18.255Z,21.58
2024-05-09T01:47:05.578Z,20.63
2024-05-09T01:49:51.914Z,21.08
2024-05-09T01:52:38.926Z,20.90
2024-05-09T01:55:24.691Z,21.17
2024-05-09T01:58:13.576Z,21.83
2024-05-09T02:00:59.715Z,21.17
2024-05-09T02:03:46.986Z,21.40
2024-05-09T02:06:39.211Z,20.92
2024-05-09T02:09:26.026Z,21.23
2024-05-09T02:12:13.959Z,20.48
2024-05-09T02:15:02.913Z,20.73
2024-05-09T02:17:49.307Z,22.45
2024-05-09T02:20:36.955Z,20.92
2024-05-09T02:23:22.907Z,21.02
2024-05-09T02:26:08.711Z,21.55
2024-05-09T02:28:54.500Z,21.27
2024-05-09T02:31:43.034Z,21.40
2024-05-09T02:34:29.434Z,21.55
2024-05-09T02:37:18.284Z,22.60
2024-05-09T02:40:05.797Z,21.95
2024-05-09T02:42:54.736Z,24.10
2024-05-09T02:45:40.845Z,23.38
2024-05-09T02:48:29.863Z,22.17
2024-05-09T02:51:16.202Z,21.25
2024-05-09T02:54:02.196Z,21.45
2024-05-09T02:56:48.357Z,22.45
2024-05-09T02:59:34.025Z,21.85
2024-05-09T03:02:19.736Z,21.65
2024-05-09T03:05:08.829Z,21.67
2024-05-09T03:07:54.655Z,21.30
2024-05-09T03:10:40.377Z,21.15
2024-05-09T03:13:26.117Z,21.52
2024-05-09T03:16:11.925Z,21.10
2024-05-09T03:18:58.065Z,21.58
2024-05-09T03:21:46.565Z,21.17
2024-05-09T03:24:32.345Z,20.98
2024-05-09T03:27:18.379Z,21.50
2024-05-09T03:30:07.352Z,20.25
2024-05-09T03:32:53.638Z,19.58
2024-05-09T03:35:39.282Z,21.33
2024-05-09T03:38:28.243Z,20.70
2024-05-09T03:41:14.415Z,19.45
2024-05-09T03:44:00.252Z,19.98
2024-05-09T03:46:45.988Z,19.40
2024-05-09T03:49:32.783Z,21.23
2024-05-09T03:52:18.754Z,21.80
2024-05-09T03:55:07.712Z,21.88
2024-05-09T03:57:53.451Z,20.83
2024-05-09T04:00:40.380Z,20.58
2024-05-09T04:03:26.400Z,20.77
2024-05-09T04:06:12.470Z,22.20
2024-05-09T04:08:58.927Z,20.77
2024-05-09T04:11:47.682Z,20.98
2024-05-09T04:14:33.788Z,20.63
2024-05-09T04:17:19.927Z,21.20
2024-05-09T04:20:08.598Z,21.90
2024-05-09T04:22:56.501Z,20.13
2024-05-09T04:25:44.851Z,20.27
2024-05-09T04:28:34.245Z,19.75
2024-05-09T04:31:20.031Z,19.55
2024-05-09T04:34:06.484Z,20.10
2024-05-09T04:36:52.365Z,19.60
2024-05-09T04:39:38.147Z,19.10
2024-05-09T04:42:23.815Z,21.33
2024-05-09T04:45:12.829Z,19.20
2024-05-09T04:47:59.223Z,18.67
2024-05-09T04:50:45.390Z,18.30
2024-05-09T04:53:31.596Z,16.88
2024-05-09T04:56:17.676Z,15.13
2024-05-09T04:59:03.957Z,13.38
2024-05-09T05:01:52.415Z,12.63
2024-05-09T05:04:38.575Z,11.93
2024-05-09T05:07:24.547Z,10.85
2024-05-09T05:10:15.090Z,11.82
2024-05-09T05:13:17.951Z,11.93
2024-05-09T05:16:08.358Z,12.02
2024-05-09T05:18:56.923Z,12.50
2024-05-09T05:21:42.593Z,11.73
2024-05-09T05:24:28.428Z,12.65
2024-05-09T05:27:17.284Z,13.30
2024-05-09T05:30:03.552Z,11.70
2024-05-09T05:32:52.134Z,12.57
2024-05-09T05:35:41.857Z,11.85
2024-05-09T05:38:28.624Z,12.15
2024-05-09T05:41:15.104Z,12.25
2024-05-09T05:44:01.113Z,11.50
2024-05-09T05:46:47.249Z,11.93
2024-05-09T05:49:33.036Z,12.02
2024-05-09T05:52:21.303Z,11.63
2024-05-09T05:55:07.582Z,11.98
2024-05-09T05:57:53.738Z,11.27
2024-05-09T06:00:41.536Z,11.75
2024-05-09T06:03:29.481Z,11.85
2024-05-09T06:06:15.346Z,11.00
2024-05-09T06:09:03.946Z,11.15
2024-05-09T06:11:49.946Z,10.75
2024-05-09T06:14:35.989Z,10.85
2024-05-09T06:17:21.858Z,11.18
2024-05-09T06:20:16.646Z,11.00
2024-05-09T06:25:58.733Z,11.20
2024-05-09T06:28:44.964Z,11.65
2024-05-09T06:31:30.920Z,11.88
2024-05-09T06:34:19.036Z,13.23
2024-05-09T06:37:04.963Z,12.52
2024-05-09T06:39:50.612Z,12.68
2024-05-09T06:42:39.103Z,12.88
2024-05-09T06:45:24.861Z,12.77
2024-05-09T06:48:12.002Z,14.02
2024-05-09T06:50:58.483Z,14.68
2024-05-09T06:53:44.263Z,13.85
2024-05-09T06:56:30.111Z,13.95
2024-05-09T06:59:19.001Z,14.48
2024-05-09T07:02:05.228Z,13.48
2024-05-09T07:04:51.174Z,13.95
2024-05-09T07:07:37.016Z,14.00
2024-05-09T07:10:28.923Z,13.52
2024-05-09T07:13:19.721Z,13.32
2024-05-09T07:16:08.247Z,13.05
2024-05-09T07:18:55.208Z,13.35
2024-05-09T07:21:41.176Z,12.88
2024-05-09T07:24:26.959Z,13.20
2024-05-09T07:27:12.769Z,13.85
2024-05-09T07:29:59.094Z,13.40
2024-05-09T07:32:48.019Z,13.90
2024-05-09T07:35:35.020Z,14.38
2024-05-09T07:38:21.097Z,13.77
2024-05-09T07:41:07.254Z,13.52
2024-05-09T07:43:52.939Z,13.93
2024-05-09T07:47:47.611Z,13.90
2024-05-09T07:51:32.591Z,12.57
2024-05-09T07:53:35.647Z,12.90
2024-05-09T07:56:00.247Z,12.00
2024-05-09T07:58:46.398Z,12.55
2024-05-09T08:01:32.480Z,11.85
2024-05-09T08:04:18.273Z,13.05
2024-05-09T08:07:07.331Z,12.43
2024-05-09T08:09:53.659Z,10.75
2024-05-09T08:12:39.470Z,9.93
2024-05-09T08:15:25.101Z,10.25
2024-05-09T08:18:14.044Z,10.70
2024-05-09T08:20:59.953Z,11.52
2024-05-09T08:23:48.456Z,12.77
2024-05-09T08:26:34.204Z,11.48
2024-05-09T08:29:19.828Z,11.18
2024-05-09T08:32:07.861Z,10.45
2024-05-09T08:34:54.083Z,11.93
2024-05-09T08:37:40.862Z,11.85
2024-05-09T08:40:35.564Z,11.77
2024-05-09T08:43:26.271Z,11.27
2024-05-09T08:46:13.571Z,12.07
2024-05-09T08:49:00.758Z,11.25
2024-05-09T08:51:47.012Z,11.75
2024-05-09T08:54:32.897Z,10.80
2024-05-09T08:57:22.768Z,11.07
2024-05-09T09:00:14.816Z,10.10
2024-05-09T09:03:02.883Z,10.13
2024-05-09T09:05:58.177Z,10.98
2024-05-09T09:08:45.637Z,10.05
2024-05-09T09:11:31.510Z,10.30
2024-05-09T09:14:20.138Z,9.73
2024-05-09T09:17:13.018Z,9.85
2024-05-09T09:20:00.464Z,9.30
2024-05-09T09:22:46.059Z,8.60
2024-05-09T09:25:32.203Z,8.23
2024-05-09T09:28:18.090Z,8.65
2024-05-09T09:31:06.572Z,8.82
2024-05-09T09:33:53.660Z,7.57
2024-05-09T09:36:42.457Z,8.90
2024-05-09T09:39:31.054Z,10.15
2024-05-09T09:42:18.450Z,10.85
2024-05-09T09:45:05.994Z,11.57
2024-05-09T09:47:57.431Z,11.02
2024-05-09T09:50:44.112Z,11.48
2024-05-09T09:53:31.824Z,10.55
2024-05-09T09:56:18.524Z,11.38
2024-05-09T09:59:05.457Z,10.85
2024-05-09T10:01:51.522Z,10.10
2024-05-09T10:04:40.554Z,10.45
2024-05-09T10:07:28.468Z,10.20
2024-05-09T10:10:29.945Z,9.15
2024-05-09T10:13:20.014Z,9.68
2024-05-09T10:16:10.798Z,9.68
2024-05-09T10:18:56.953Z,8.77
2024-05-09T10:21:49.379Z,9.32
2024-05-09T10:24:48.686Z,10.75
2024-05-09T10:27:35.001Z,9.48
2024-05-09T10:30:29.803Z,8.85
2024-05-09T10:33:21.851Z,8.55
2024-05-09T10:36:13.968Z,9.90
2024-05-09T10:39:02.472Z,9.18
2024-05-09T10:41:49.068Z,9.55
2024-05-09T10:44:37.947Z,9.25
2024-05-09T10:47:24.558Z,10.35
2024-05-09T10:50:18.526Z,12.32
2024-05-09T10:53:11.496Z,13.07
2024-05-09T10:56:01.496Z,12.90
2024-05-09T10:58:48.420Z,13.05
2024-05-09T11:01:35.153Z,13.00
2024-05-09T11:04:21.308Z,12.75
2024-05-09T11:07:11.546Z,13.45
2024-05-09T11:09:57.754Z,13.20
2024-05-09T11:12:48.972Z,12.82
2024-05-09T11:15:39.164Z,13.00
2024-05-09T11:18:28.721Z,12.82
2024-05-09T11:21:16.623Z,12.95
2024-05-09T11:24:02.489Z,12.52
2024-05-09T11:26:48.348Z,13.45
2024-05-09T11:29:44.777Z,12.45
2024-05-09T11:32:30.930Z,13.65
2024-05-09T11:35:17.163Z,14.13
2024-05-09T11:38:03.514Z,11.95
2024-05-09T11:40:49.473Z,12.25
2024-05-09T11:43:35.457Z,14.48
2024-05-09T11:46:24.026Z,12.93
2024-05-09T11:49:10.321Z,11.32
2024-05-09T11:51:56.521Z,11.50
2024-05-09T11:54:42.270Z,13.20
2024-05-09T11:57:29.450Z,12.20
2024-05-09T12:00:21.034Z,11.95
2024-05-09T12:03:17.892Z,11.80
2024-05-09T12:06:04.123Z,11.40
2024-05-09T12:08:54.088Z,12.55
2024-05-09T12:11:45.451Z,12.05
2024-05-09T12:14:31.568Z,11.32
2024-05-09T12:17:17.787Z,11.40
2024-05-09T12:20:20.935Z,11.27
2024-05-09T12:23:11.846Z,10.90
2024-05-09T12:25:57.817Z,9.88
2024-05-09T12:28:43.670Z,12.00
2024-05-09T12:31:29.570Z,9.85
2024-05-09T12:34:16.354Z,10.23
2024-05-09T12:37:05.280Z,10.02
2024-05-09T12:39:51.202Z,9.75
2024-05-09T12:42:36.995Z,10.63
2024-05-09T12:45:22.677Z,10.25
2024-05-09T12:48:12.348Z,10.52
2024-05-09T12:50:59.271Z,10.43
2024-05-09T12:53:47.498Z,11.18
2024-05-09T12:56:33.636Z,10.40
2024-05-09T12:59:19.453Z,10.32
2024-05-09T13:02:05.933Z,10.35
2024-05-09T13:04:52.227Z,10.85
2024-05-09T13:07:38.700Z,10.98
2024-05-09T13:10:32.135Z,12.02
2024-05-09T13:13:19.865Z,12.20
2024-05-09T13:16:06.426Z,11.90
2024-05-09T13:18:52.483Z,11.45
2024-05-09T13:21:38.271Z,11.93
2024-05-09T13:24:23.911Z,11.98
2024-05-09T13:27:12.386Z,11.45
2024-05-09T13:29:58.132Z,10.95
2024-05-09T13:32:44.045Z,11.13
2024-05-09T13:35:32.013Z,10.80
2024-05-09T13:38:18.417Z,11.95
2024-05-09T13:41:04.487Z,10.80
2024-05-09T13:43:53.708Z,11.02
2024-05-09T13:46:39.681Z,10.85
2024-05-09T13:49:25.697Z,10.63
2024-05-09T13:52:12.470Z,11.25
2024-05-09T13:54:59.351Z,11.90
2024-05-09T13:57:45.410Z,11.65
2024-05-09T14:00:44.123Z,10.63
2024-05-09T14:03:34.377Z,9.88
2024-05-09T14:06:20.795Z,11.38
2024-05-09T14:09:09.646Z,10.85
2024-05-09T14:11:56.371Z,11.23
2024-05-09T14:14:42.075Z,11.20
2024-05-09T14:17:30.832Z,10.60
2024-05-09T14:20:31.249Z,10.15
2024-05-09T14:23:18.540Z,11.35
2024-05-09T14:26:04.922Z,10.40
2024-05-09T14:28:50.712Z,10.73
2024-05-09T14:31:39.374Z,10.77
2024-05-09T14:34:26.250Z,10.10
2024-05-09T14:37:15.178Z,10.93
2024-05-09T14:40:01.056Z,10.50
2024-05-09T14:42:47.121Z,11.52
2024-05-09T14:45:34.631Z,11.57
2024-05-09T14:48:21.252Z,11.73
2024-05-09T14:51:07.427Z,10.85
2024-05-09T14:53:56.411Z,11.70
2024-05-09T14:56:42.746Z,11.48
2024-05-09T14:59:28.866Z,11.57
2024-05-09T15:02:14.714Z,11.82
2024-05-09T15:05:00.530Z,12.15
2024-05-09T15:07:47.056Z,11.57
2024-05-09T15:10:37.079Z,11.10
2024-05-09T15:13:25.021Z,11.82
2024-05-09T15:16:11.323Z,11.32
2024-05-09T15:18:57.729Z,11.55
2024-05-09T15:21:43.878Z,11.70
2024-05-09T15:24:29.706Z,11.90
2024-05-09T15:27:19.030Z,11.23
2024-05-09T15:30:10.235Z,12.35
2024-05-09T15:32:56.384Z,11.98
2024-05-09T15:35:42.631Z,11.63
2024-05-09T15:38:28.859Z,12.20
2024-05-09T15:41:14.724Z,11.95
2024-05-09T15:44:03.331Z,12.23
2024-05-09T15:46:49.645Z,11.85
2024-05-09T15:49:35.783Z,11.70
2024-05-09T15:52:22.030Z,11.77
2024-05-09T15:55:10.184Z,11.98
2024-05-09T15:57:56.299Z,12.23
2024-05-09T16:00:46.382Z,11.82
2024-05-09T16:03:34.482Z,12.73
2024-05-09T16:06:20.825Z,13.15
2024-05-09T16:09:07.290Z,11.77
2024-05-09T16:11:53.147Z,11.90
2024-05-09T16:14:39.490Z,12.68
2024-05-09T16:17:28.231Z,12.43
2024-05-09T16:20:18.320Z,12.85
2024-05-09T16:23:12.861Z,12.95
2024-05-09T16:25:59.006Z,13.63
2024-05-09T16:28:44.892Z,12.63
2024-05-09T16:31:30.776Z,14.50
2024-05-09T16:34:19.888Z,12.93
2024-05-09T16:37:10.377Z,12.10
2024-05-09T16:39:56.535Z,12.93
2024-05-09T16:42:42.299Z,13.82
2024-05-09T16:45:28.061Z,12.90
2024-05-09T16:48:14.694Z,13.25
2024-05-09T16:51:03.303Z,14.07
2024-05-09T16:53:49.631Z,14.32
2024-05-09T16:56:35.768Z,14.50
2024-05-09T16:59:22.602Z,14.85
2024-05-09T17:02:09.884Z,15.57
2024-05-09T17:04:56.333Z,15.27
2024-05-09T17:07:47.568Z,15.32
2024-05-09T17:10:35.102Z,15.13
2024-05-09T17:13:22.642Z,15.60
2024-05-09T17:16:09.465Z,16.98
2024-05-09T17:18:55.246Z,16.52
2024-05-09T17:21:41.179Z,17.25
2024-05-09T17:24:30.160Z,15.85
2024-05-09T17:27:16.059Z,17.55
2024-05-09T17:30:02.615Z,17.52
2024-05-09T17:32:49.606Z,17.48
2024-05-09T17:35:36.179Z,17.52
2024-05-09T17:38:23.763Z,17.40
2024-05-09T17:41:12.591Z,18.20
2024-05-09T17:43:58.352Z,18.83
2024-05-09T17:46:44.231Z,17.92
2024-05-09T17:49:30.283Z,18.42
2024-05-09T17:52:16.447Z,18.88
2024-05-09T17:55:02.945Z,19.70
2024-05-09T17:57:51.801Z,22.25
2024-05-09T18:00:40.724Z,19.15
2024-05-09T18:03:28.702Z,20.13
2024-05-09T18:06:16.409Z,20.05
2024-05-09T18:09:02.184Z,19.13
2024-05-09T18:11:48.451Z,20.30
2024-05-09T18:14:37.233Z,19.92
2024-05-09T18:17:25.641Z,20.88
2024-05-09T18:20:17.459Z,20.42
2024-05-09T18:23:09.766Z,20.52
2024-05-09T18:25:57.035Z,21.55
2024-05-09T18:28:42.881Z,21.50
2024-05-09T18:31:31.447Z,22.02
2024-05-09T18:34:17.631Z,22.02
2024-05-09T18:37:04.707Z,22.10
2024-05-09T18:39:50.492Z,23.38
2024-05-09T18:42:36.450Z,22.30
2024-05-09T18:45:22.190Z,23.13
2024-05-09T18:48:11.858Z,23.30
2024-05-09T18:50:57.923Z,24.10
2024-05-09T18:53:44.968Z,24.23
2024-05-09T18:56:30.913Z,26.42
2024-05-09T18:59:16.957Z,25.27
2024-05-09T19:02:03.215Z,26.15
2024-05-09T19:04:52.883Z,26.30
2024-05-09T19:07:38.810Z,27.40
2024-05-09T19:10:28.830Z,27.48
2024-05-09T19:13:19.438Z,27.98
2024-05-09T19:16:05.806Z,26.50
2024-05-09T19:18:53.909Z,27.40
2024-05-09T19:21:43.090Z,27.80
2024-05-09T19:24:29.367Z,28.27
2024-05-09T19:27:15.178Z,29.75
2024-05-09T19:30:00.968Z,28.48
2024-05-09T19:32:46.758Z,29.80
2024-05-09T19:35:33.104Z,28.80
2024-05-09T19:38:21.733Z,28.35
2024-05-09T19:41:07.904Z,28.55
2024-05-09T19:43:53.962Z,27.75
2024-05-09T19:46:39.869Z,26.10
2024-05-09T19:49:26.044Z,26.70
2024-05-09T19:52:12.344Z,26.58
2024-05-09T19:55:01.094Z,26.98
2024-05-09T19:57:47.254Z,26.67
2024-05-09T20:00:36.417Z,27.63
2024-05-09T20:06:10.258Z,26.05
2024-05-09T20:08:58.297Z,29.15
2024-05-09T20:11:46.743Z,29.25
2024-05-09T20:14:32.902Z,28.55
2024-05-09T20:17:18.651Z,28.80
2024-05-09T20:20:09.180Z,30.48
2024-05-09T20:22:59.540Z,30.48
2024-05-09T20:25:45.526Z,30.40
2024-05-09T20:28:34.667Z,30.83
2024-05-09T20:31:21.562Z,31.08
2024-05-09T20:34:07.788Z,30.05
2024-05-09T20:36:56.682Z,31.25
2024-05-09T20:39:42.423Z,30.40
2024-05-09T20:42:28.215Z,30.13
2024-05-09T20:45:16.711Z,31.00
2024-05-09T20:48:03.022Z,31.35
2024-05-09T20:50:49.253Z,30.98
2024-05-09T20:53:34.884Z,31.98
2024-05-09T20:56:22.191Z,31.75
2024-05-09T20:59:08.349Z,32.10
2024-05-09T21:01:57.129Z,32.28
2024-05-09T21:04:43.475Z,31.30
2024-05-09T21:07:29.819Z,32.28
2024-05-09T21:10:22.311Z,32.70
2024-05-09T21:13:09.147Z,31.70
2024-05-09T21:15:55.001Z,32.05
2024-05-09T21:18:43.818Z,33.33
2024-05-09T21:21:29.747Z,32.25
2024-05-09T21:24:15.526Z,32.33
2024-05-09T21:27:01.359Z,33.47
2024-05-09T21:29:47.263Z,32.03
2024-05-09T21:32:33.006Z,31.38
2024-05-09T21:35:21.539Z,32.75
2024-05-09T21:38:07.979Z,32.67
2024-05-09T21:40:53.918Z,32.95
2024-05-09T21:43:40.226Z,33.67
2024-05-09T21:46:26.375Z,34.53
2024-05-09T21:49:12.674Z,35.20
2024-05-09T21:52:01.367Z,35.78
2024-05-09T21:54:47.506Z,33.80
2024-05-09T21:57:33.384Z,34.17
2024-05-09T22:00:28.824Z,35.70
2024-05-09T22:03:21.570Z,35.83
2024-05-09T22:06:08.182Z,35.38
2024-05-09T22:08:56.728Z,35.83
2024-05-09T22:11:42.547Z,35.97
2024-05-09T22:14:28.278Z,37.13
2024-05-09T22:17:14.073Z,37.70
2024-05-09T22:19:59.596Z,36.13
2024-05-09T22:22:45.461Z,37.15
2024-05-09T22:25:34.112Z,37.65
2024-05-09T22:28:20.215Z,36.40
2024-05-09T22:31:08.276Z,37.67
2024-05-09T22:33:54.596Z,38.92
2024-05-09T22:36:40.593Z,36.53
2024-05-09T22:39:26.469Z,37.58
2024-05-09T22:42:15.279Z,38.35
2024-05-09T22:45:01.381Z,36.47
2024-05-09T22:47:47.250Z,37.42
2024-05-09T22:50:33.798Z,38.55
2024-05-09T22:53:21.848Z,37.40
2024-05-09T22:56:08.310Z,39.10
2024-05-09T22:58:57.205Z,38.42
2024-05-09T23:01:43.198Z,37.95
2024-05-09T23:04:29.137Z,37.03
2024-05-09T23:07:15.255Z,37.63
2024-05-09T23:10:01.111Z,41.45
2024-05-09T23:12:46.801Z,38.55
2024-05-09T23:15:36.249Z,37.58
2024-05-09T23:18:22.225Z,39.13
2024-05-09T23:21:08.357Z,39.08
2024-05-09T23:23:54.766Z,38.90
2024-05-09T23:26:43.216Z,39.58
2024-05-09T23:29:29.035Z,39.00
2024-05-09T23:32:17.638Z,39.40
2024-05-09T23:35:03.984Z,38.80
2024-05-09T23:37:49.642Z,39.70
2024-05-09T23:40:39.645Z,38.75
2024-05-09T23:43:27.533Z,39.95
2024-05-09T23:46:13.722Z,39.80
2024-05-09T23:49:02.104Z,40.72
2024-05-09T23:51:48.138Z,40.90
2024-05-09T23:54:33.958Z,42.38
2024-05-09T23:57:19.860Z,43.03
